sensor_id;sensor_type;location;lat;lon;timestamp;P1;durP1;ratioP1;P2;durP2;ratioP2
19414;SDS011;9843;48.882;12.592;2023-08-12T00:00:16;4.47;;;4.07;;
19414;SDS011;9843;48.882;12.592;2023-08-12T00:02:44;7.50;;;4.97;;
19414;SDS011;9843;48.882;12.592;2023-08-12T00:05:13;5.73;;;5.13;;
19414;SDS011;9843;48.882;12.592;2023-08-12T00:07:40;4.40;;;4.00;;
19414;SDS011;9843;48.882;12.592;2023-08-12T00:10:08;7.27;;;4.23;;
19414;SDS011;9843;48.882;12.592;2023-08-12T00:12:35;6.33;;;4.87;;
19414;SDS011;9843;48.882;12.592;2023-08-12T00:15:03;5.97;;;3.90;;
19414;SDS011;9843;48.882;12.592;2023-08-12T00:17:31;4.37;;;3.97;;
19414;SDS011;9843;48.882;12.592;2023-08-12T00:19:58;5.47;;;4.97;;
19414;SDS011;9843;48.882;12.592;2023-08-12T00:22:27;6.70;;;4.77;;
19414;SDS011;9843;48.882;12.592;2023-08-12T00:24:54;5.20;;;4.80;;
19414;SDS011;9843;48.882;12.592;2023-08-12T00:27:21;4.90;;;4.50;;
19414;SDS011;9843;48.882;12.592;2023-08-12T00:29:48;5.27;;;4.77;;
19414;SDS011;9843;48.882;12.592;2023-08-12T00:32:15;6.23;;;5.50;;
19414;SDS011;9843;48.882;12.592;2023-08-12T00:34:42;5.60;;;4.67;;
19414;SDS011;9843;48.882;12.592;2023-08-12T00:37:09;5.40;;;4.80;;
19414;SDS011;9843;48.882;12.592;2023-08-12T00:39:38;4.90;;;4.00;;
19414;SDS011;9843;48.882;12.592;2023-08-12T00:42:05;5.27;;;4.13;;
19414;SDS011;9843;48.882;12.592;2023-08-12T00:44:32;5.83;;;5.30;;
19414;SDS011;9843;48.882;12.592;2023-08-12T00:46:59;4.67;;;4.27;;
19414;SDS011;9843;48.882;12.592;2023-08-12T00:49:26;4.70;;;4.33;;
19414;SDS011;9843;48.882;12.592;2023-08-12T00:51:53;5.77;;;4.23;;
19414;SDS011;9843;48.882;12.592;2023-08-12T00:54:21;5.10;;;4.70;;
19414;SDS011;9843;48.882;12.592;2023-08-12T00:56:50;6.17;;;4.27;;
19414;SDS011;9843;48.882;12.592;2023-08-12T00:59:17;6.97;;;4.97;;
19414;SDS011;9843;48.882;12.592;2023-08-12T01:01:46;4.87;;;4.47;;
19414;SDS011;9843;48.882;12.592;2023-08-12T01:04:14;5.53;;;5.03;;
19414;SDS011;9843;48.882;12.592;2023-08-12T01:06:41;5.17;;;4.10;;
19414;SDS011;9843;48.882;12.592;2023-08-12T01:09:08;5.80;;;5.10;;
19414;SDS011;9843;48.882;12.592;2023-08-12T01:11:36;6.60;;;5.00;;
19414;SDS011;9843;48.882;12.592;2023-08-12T01:14:08;4.87;;;4.47;;
19414;SDS011;9843;48.882;12.592;2023-08-12T01:16:39;4.03;;;3.73;;
19414;SDS011;9843;48.882;12.592;2023-08-12T01:19:09;4.07;;;3.77;;
19414;SDS011;9843;48.882;12.592;2023-08-12T01:21:36;4.90;;;4.40;;
19414;SDS011;9843;48.882;12.592;2023-08-12T01:24:09;5.13;;;4.63;;
19414;SDS011;9843;48.882;12.592;2023-08-12T01:26:36;6.53;;;4.83;;
19414;SDS011;9843;48.882;12.592;2023-08-12T01:29:03;6.43;;;4.13;;
19414;SDS011;9843;48.882;12.592;2023-08-12T01:31:31;6.93;;;5.43;;
19414;SDS011;9843;48.882;12.592;2023-08-12T01:34:01;5.90;;;4.10;;
19414;SDS011;9843;48.882;12.592;2023-08-12T01:36:29;5.93;;;4.60;;
19414;SDS011;9843;48.882;12.592;2023-08-12T01:38:57;5.90;;;4.60;;
19414;SDS011;9843;48.882;12.592;2023-08-12T01:41:27;5.77;;;5.27;;
19414;SDS011;9843;48.882;12.592;2023-08-12T01:43:54;4.70;;;4.20;;
19414;SDS011;9843;48.882;12.592;2023-08-12T01:46:21;4.60;;;3.37;;
19414;SDS011;9843;48.882;12.592;2023-08-12T01:48:48;5.07;;;4.57;;
19414;SDS011;9843;48.882;12.592;2023-08-12T01:51:15;5.30;;;4.80;;
19414;SDS011;9843;48.882;12.592;2023-08-12T01:53:42;5.40;;;4.87;;
19414;SDS011;9843;48.882;12.592;2023-08-12T01:56:09;7.93;;;4.77;;
19414;SDS011;9843;48.882;12.592;2023-08-12T01:58:38;5.77;;;5.27;;
19414;SDS011;9843;48.882;12.592;2023-08-12T02:01:05;5.27;;;4.07;;
19414;SDS011;9843;48.882;12.592;2023-08-12T02:03:32;5.27;;;4.77;;
19414;SDS011;9843;48.882;12.592;2023-08-12T02:05:59;5.70;;;4.40;;
19414;SDS011;9843;48.882;12.592;2023-08-12T02:08:26;4.60;;;3.87;;
19414;SDS011;9843;48.882;12.592;2023-08-12T02:10:53;3.83;;;3.53;;
19414;SDS011;9843;48.882;12.592;2023-08-12T02:13:20;4.90;;;4.37;;
19414;SDS011;9843;48.882;12.592;2023-08-12T02:15:48;6.30;;;5.70;;
19414;SDS011;9843;48.882;12.592;2023-08-12T02:18:15;7.10;;;6.50;;
19414;SDS011;9843;48.882;12.592;2023-08-12T02:20:42;6.43;;;5.17;;
19414;SDS011;9843;48.882;12.592;2023-08-12T02:23:09;5.43;;;5.03;;
19414;SDS011;9843;48.882;12.592;2023-08-12T02:25:36;7.03;;;5.10;;
19414;SDS011;9843;48.882;12.592;2023-08-12T02:28:04;5.53;;;5.07;;
19414;SDS011;9843;48.882;12.592;2023-08-12T02:30:31;5.73;;;5.23;;
19414;SDS011;9843;48.882;12.592;2023-08-12T02:32:59;4.83;;;4.43;;
19414;SDS011;9843;48.882;12.592;2023-08-12T02:35:26;6.10;;;5.30;;
19414;SDS011;9843;48.882;12.592;2023-08-12T02:37:53;4.23;;;3.33;;
19414;SDS011;9843;48.882;12.592;2023-08-12T02:40:20;5.20;;;4.80;;
19414;SDS011;9843;48.882;12.592;2023-08-12T02:42:47;4.80;;;4.40;;
19414;SDS011;9843;48.882;12.592;2023-08-12T02:45:14;5.33;;;4.77;;
19414;SDS011;9843;48.882;12.592;2023-08-12T02:47:41;5.27;;;4.77;;
19414;SDS011;9843;48.882;12.592;2023-08-12T02:50:10;5.03;;;4.60;;
19414;SDS011;9843;48.882;12.592;2023-08-12T02:52:37;5.57;;;4.83;;
19414;SDS011;9843;48.882;12.592;2023-08-12T02:55:04;5.00;;;4.50;;
19414;SDS011;9843;48.882;12.592;2023-08-12T02:57:31;5.57;;;4.57;;
19414;SDS011;9843;48.882;12.592;2023-08-12T02:59:58;5.07;;;4.57;;
19414;SDS011;9843;48.882;12.592;2023-08-12T03:02:25;9.20;;;4.30;;
19414;SDS011;9843;48.882;12.592;2023-08-12T03:04:53;4.17;;;3.87;;
19414;SDS011;9843;48.882;12.592;2023-08-12T03:07:21;4.67;;;4.17;;
19414;SDS011;9843;48.882;12.592;2023-08-12T03:09:48;4.97;;;4.10;;
19414;SDS011;9843;48.882;12.592;2023-08-12T03:12:15;5.27;;;4.63;;
19414;SDS011;9843;48.882;12.592;2023-08-12T03:14:42;4.20;;;3.80;;
19414;SDS011;9843;48.882;12.592;2023-08-12T03:17:09;5.33;;;4.83;;
19414;SDS011;9843;48.882;12.592;2023-08-12T03:19:36;5.47;;;4.97;;
19414;SDS011;9843;48.882;12.592;2023-08-12T03:22:03;4.43;;;4.07;;
19414;SDS011;9843;48.882;12.592;2023-08-12T03:24:32;5.93;;;5.40;;
19414;SDS011;9843;48.882;12.592;2023-08-12T03:26:59;4.80;;;4.40;;
19414;SDS011;9843;48.882;12.592;2023-08-12T03:29:26;4.63;;;4.20;;
19414;SDS011;9843;48.882;12.592;2023-08-12T03:31:53;7.00;;;4.53;;
19414;SDS011;9843;48.882;12.592;2023-08-12T03:34:19;4.50;;;4.20;;
19414;SDS011;9843;48.882;12.592;2023-08-12T03:36:46;7.17;;;5.30;;
19414;SDS011;9843;48.882;12.592;2023-08-12T03:39:15;4.97;;;4.57;;
19414;SDS011;9843;48.882;12.592;2023-08-12T03:41:43;4.60;;;4.20;;
19414;SDS011;9843;48.882;12.592;2023-08-12T03:44:10;6.70;;;5.47;;
19414;SDS011;9843;48.882;12.592;2023-08-12T03:46:37;6.37;;;4.77;;
19414;SDS011;9843;48.882;12.592;2023-08-12T03:49:04;5.67;;;5.23;;
19414;SDS011;9843;48.882;12.592;2023-08-12T03:51:31;4.77;;;4.37;;
19414;SDS011;9843;48.882;12.592;2023-08-12T03:53:59;5.63;;;4.73;;
19414;SDS011;9843;48.882;12.592;2023-08-12T03:56:26;5.53;;;5.07;;
19414;SDS011;9843;48.882;12.592;2023-08-12T03:58:54;7.87;;;6.73;;
19414;SDS011;9843;48.882;12.592;2023-08-12T04:01:21;5.93;;;5.30;;
19414;SDS011;9843;48.882;12.592;2023-08-12T04:03:48;9.30;;;6.37;;
19414;SDS011;9843;48.882;12.592;2023-08-12T04:06:15;5.47;;;4.97;;
19414;SDS011;9843;48.882;12.592;2023-08-12T04:08:42;13.63;;;8.53;;
19414;SDS011;9843;48.882;12.592;2023-08-12T04:11:09;5.00;;;4.60;;
19414;SDS011;9843;48.882;12.592;2023-08-12T04:13:36;6.83;;;5.80;;
19414;SDS011;9843;48.882;12.592;2023-08-12T04:16:05;6.53;;;5.93;;
19414;SDS011;9843;48.882;12.592;2023-08-12T04:18:32;6.10;;;5.50;;
19414;SDS011;9843;48.882;12.592;2023-08-12T04:20:59;6.50;;;5.90;;
19414;SDS011;9843;48.882;12.592;2023-08-12T04:23:26;5.77;;;5.20;;
19414;SDS011;9843;48.882;12.592;2023-08-12T04:25:53;6.67;;;5.00;;
19414;SDS011;9843;48.882;12.592;2023-08-12T04:28:20;12.67;;;5.47;;
19414;SDS011;9843;48.882;12.592;2023-08-12T04:30:48;4.93;;;4.53;;
19414;SDS011;9843;48.882;12.592;2023-08-12T04:33:17;8.13;;;6.53;;
19414;SDS011;9843;48.882;12.592;2023-08-12T04:35:44;5.20;;;4.83;;
19414;SDS011;9843;48.882;12.592;2023-08-12T04:38:12;5.37;;;4.87;;
19414;SDS011;9843;48.882;12.592;2023-08-12T04:40:39;10.90;;;5.00;;
19414;SDS011;9843;48.882;12.592;2023-08-12T04:43:07;5.53;;;5.03;;
19414;SDS011;9843;48.882;12.592;2023-08-12T04:45:34;5.43;;;4.40;;
19414;SDS011;9843;48.882;12.592;2023-08-12T04:48:01;5.23;;;4.77;;
19414;SDS011;9843;48.882;12.592;2023-08-12T04:50:30;7.10;;;5.67;;
19414;SDS011;9843;48.882;12.592;2023-08-12T04:52:59;7.23;;;6.47;;
19414;SDS011;9843;48.882;12.592;2023-08-12T04:55:26;8.87;;;6.13;;
19414;SDS011;9843;48.882;12.592;2023-08-12T04:57:54;6.90;;;6.30;;
19414;SDS011;9843;48.882;12.592;2023-08-12T05:00:21;6.57;;;5.97;;
19414;SDS011;9843;48.882;12.592;2023-08-12T05:02:48;6.57;;;5.97;;
19414;SDS011;9843;48.882;12.592;2023-08-12T05:05:15;7.27;;;6.57;;
19414;SDS011;9843;48.882;12.592;2023-08-12T05:07:44;6.80;;;6.13;;
19414;SDS011;9843;48.882;12.592;2023-08-12T05:10:14;7.47;;;6.57;;
19414;SDS011;9843;48.882;12.592;2023-08-12T05:12:41;6.20;;;5.60;;
19414;SDS011;9843;48.882;12.592;2023-08-12T05:15:08;7.37;;;6.53;;
19414;SDS011;9843;48.882;12.592;2023-08-12T05:17:36;6.23;;;5.63;;
19414;SDS011;9843;48.882;12.592;2023-08-12T05:20:03;6.87;;;6.27;;
19414;SDS011;9843;48.882;12.592;2023-08-12T05:22:30;6.93;;;6.30;;
19414;SDS011;9843;48.882;12.592;2023-08-12T05:24:59;7.10;;;6.50;;
19414;SDS011;9843;48.882;12.592;2023-08-12T05:27:26;6.97;;;5.80;;
19414;SDS011;9843;48.882;12.592;2023-08-12T05:29:53;6.57;;;6.00;;
19414;SDS011;9843;48.882;12.592;2023-08-12T05:32:20;7.93;;;6.40;;
19414;SDS011;9843;48.882;12.592;2023-08-12T05:34:49;6.70;;;4.90;;
19414;SDS011;9843;48.882;12.592;2023-08-12T05:37:16;5.27;;;4.80;;
19414;SDS011;9843;48.882;12.592;2023-08-12T05:39:43;5.73;;;5.30;;
19414;SDS011;9843;48.882;12.592;2023-08-12T05:42:12;5.00;;;4.50;;
19414;SDS011;9843;48.882;12.592;2023-08-12T05:44:40;6.37;;;5.80;;
19414;SDS011;9843;48.882;12.592;2023-08-12T05:47:07;6.47;;;5.87;;
19414;SDS011;9843;48.882;12.592;2023-08-12T05:49:34;5.97;;;5.37;;
19414;SDS011;9843;48.882;12.592;2023-08-12T05:52:01;7.60;;;5.23;;
19414;SDS011;9843;48.882;12.592;2023-08-12T05:54:28;8.00;;;4.20;;
19414;SDS011;9843;48.882;12.592;2023-08-12T05:56:55;5.23;;;4.70;;
19414;SDS011;9843;48.882;12.592;2023-08-12T05:59:23;5.80;;;4.83;;
19414;SDS011;9843;48.882;12.592;2023-08-12T06:01:50;5.80;;;3.63;;
19414;SDS011;9843;48.882;12.592;2023-08-12T06:04:17;5.93;;;3.70;;
19414;SDS011;9843;48.882;12.592;2023-08-12T06:06:44;5.50;;;4.97;;
19414;SDS011;9843;48.882;12.592;2023-08-12T06:09:12;4.87;;;4.30;;
19414;SDS011;9843;48.882;12.592;2023-08-12T06:11:39;7.20;;;4.87;;
19414;SDS011;9843;48.882;12.592;2023-08-12T06:14:06;7.47;;;4.77;;
19414;SDS011;9843;48.882;12.592;2023-08-12T06:16:34;6.60;;;4.13;;
19414;SDS011;9843;48.882;12.592;2023-08-12T06:19:01;4.77;;;4.37;;
19414;SDS011;9843;48.882;12.592;2023-08-12T06:21:29;7.03;;;4.07;;
19414;SDS011;9843;48.882;12.592;2023-08-12T06:23:56;4.47;;;4.07;;
19414;SDS011;9843;48.882;12.592;2023-08-12T06:26:23;7.03;;;4.17;;
19414;SDS011;9843;48.882;12.592;2023-08-12T06:28:50;6.10;;;5.13;;
19414;SDS011;9843;48.882;12.592;2023-08-12T06:31:17;4.20;;;3.70;;
19414;SDS011;9843;48.882;12.592;2023-08-12T06:33:45;4.50;;;3.97;;
19414;SDS011;9843;48.882;12.592;2023-08-12T06:36:12;4.77;;;4.07;;
19414;SDS011;9843;48.882;12.592;2023-08-12T06:38:39;7.03;;;4.83;;
19414;SDS011;9843;48.882;12.592;2023-08-12T06:41:07;5.10;;;3.97;;
19414;SDS011;9843;48.882;12.592;2023-08-12T06:43:34;4.30;;;3.90;;
19414;SDS011;9843;48.882;12.592;2023-08-12T06:46:01;6.33;;;3.93;;
19414;SDS011;9843;48.882;12.592;2023-08-12T06:48:28;5.77;;;3.57;;
19414;SDS011;9843;48.882;12.592;2023-08-12T06:50:56;4.03;;;3.57;;
19414;SDS011;9843;48.882;12.592;2023-08-12T06:53:24;7.03;;;3.93;;
19414;SDS011;9843;48.882;12.592;2023-08-12T06:55:51;4.03;;;3.43;;
19414;SDS011;9843;48.882;12.592;2023-08-12T06:58:19;4.63;;;3.90;;
19414;SDS011;9843;48.882;12.592;2023-08-12T07:00:46;6.37;;;3.73;;
19414;SDS011;9843;48.882;12.592;2023-08-12T07:03:13;4.67;;;3.47;;
19414;SDS011;9843;48.882;12.592;2023-08-12T07:05:40;6.70;;;3.90;;
19414;SDS011;9843;48.882;12.592;2023-08-12T07:08:08;3.23;;;2.83;;
19414;SDS011;9843;48.882;12.592;2023-08-12T07:10:37;5.77;;;4.13;;
19414;SDS011;9843;48.882;12.592;2023-08-12T07:13:04;8.87;;;4.00;;
19414;SDS011;9843;48.882;12.592;2023-08-12T07:15:31;3.50;;;3.20;;
19414;SDS011;9843;48.882;12.592;2023-08-12T07:17:58;5.60;;;3.05;;
19414;SDS011;9843;48.882;12.592;2023-08-12T07:20:25;6.43;;;3.78;;
19414;SDS011;9843;48.882;12.592;2023-08-12T07:22:52;4.25;;;3.03;;
19414;SDS011;9843;48.882;12.592;2023-08-12T07:25:22;4.22;;;3.40;;
19414;SDS011;9843;48.882;12.592;2023-08-12T07:27:49;4.38;;;3.15;;
19414;SDS011;9843;48.882;12.592;2023-08-12T07:30:16;9.68;;;2.78;;
19414;SDS011;9843;48.882;12.592;2023-08-12T07:32:43;5.65;;;2.83;;
19414;SDS011;9843;48.882;12.592;2023-08-12T07:35:10;4.13;;;2.92;;
19414;SDS011;9843;48.882;12.592;2023-08-12T07:37:37;3.85;;;2.50;;
19414;SDS011;9843;48.882;12.592;2023-08-12T07:40:05;4.13;;;2.92;;
19414;SDS011;9843;48.882;12.592;2023-08-12T07:42:34;4.40;;;2.97;;
19414;SDS011;9843;48.882;12.592;2023-08-12T07:45:01;3.03;;;2.25;;
19414;SDS011;9843;48.882;12.592;2023-08-12T07:47:28;8.15;;;2.95;;
19414;SDS011;9843;48.882;12.592;2023-08-12T07:49:55;4.78;;;2.47;;
19414;SDS011;9843;48.882;12.592;2023-08-12T07:52:22;5.38;;;1.98;;
19414;SDS011;9843;48.882;12.592;2023-08-12T07:54:49;2.67;;;1.92;;
19414;SDS011;9843;48.882;12.592;2023-08-12T07:57:16;5.47;;;2.53;;
19414;SDS011;9843;48.882;12.592;2023-08-12T07:59:46;4.68;;;2.05;;
19414;SDS011;9843;48.882;12.592;2023-08-12T08:02:13;3.40;;;2.33;;
19414;SDS011;9843;48.882;12.592;2023-08-12T08:04:41;3.42;;;1.77;;
19414;SDS011;9843;48.882;12.592;2023-08-12T08:07:08;1.63;;;1.25;;
19414;SDS011;9843;48.882;12.592;2023-08-12T08:09:35;4.75;;;1.80;;
19414;SDS011;9843;48.882;12.592;2023-08-12T08:12:02;6.40;;;2.00;;
19414;SDS011;9843;48.882;12.592;2023-08-12T08:14:29;2.95;;;1.90;;
19414;SDS011;9843;48.882;12.592;2023-08-12T08:16:58;4.07;;;1.70;;
19414;SDS011;9843;48.882;12.592;2023-08-12T08:19:25;4.78;;;1.40;;
19414;SDS011;9843;48.882;12.592;2023-08-12T08:21:52;3.03;;;2.20;;
19414;SDS011;9843;48.882;12.592;2023-08-12T08:24:19;2.60;;;1.35;;
19414;SDS011;9843;48.882;12.592;2023-08-12T08:26:46;6.75;;;1.25;;
19414;SDS011;9843;48.882;12.592;2023-08-12T08:29:13;3.30;;;1.27;;
19414;SDS011;9843;48.882;12.592;2023-08-12T08:31:40;18.50;;;3.50;;
19414;SDS011;9843;48.882;12.592;2023-08-12T08:34:08;7.72;;;7.10;;
19414;SDS011;9843;48.882;12.592;2023-08-12T08:36:35;1.55;;;1.10;;
19414;SDS011;9843;48.882;12.592;2023-08-12T08:39:03;15.23;;;2.28;;
19414;SDS011;9843;48.882;12.592;2023-08-12T08:41:31;3.42;;;1.15;;
19414;SDS011;9843;48.882;12.592;2023-08-12T08:43:59;2.95;;;1.48;;
19414;SDS011;9843;48.882;12.592;2023-08-12T08:46:29;5.00;;;1.45;;
19414;SDS011;9843;48.882;12.592;2023-08-12T08:48:57;1.95;;;1.42;;
19414;SDS011;9843;48.882;12.592;2023-08-12T08:51:27;4.13;;;1.20;;
19414;SDS011;9843;48.882;12.592;2023-08-12T08:53:54;1.17;;;0.82;;
19414;SDS011;9843;48.882;12.592;2023-08-12T08:56:21;29.13;;;4.32;;
19414;SDS011;9843;48.882;12.592;2023-08-12T08:58:48;4.70;;;1.55;;
19414;SDS011;9843;48.882;12.592;2023-08-12T09:01:16;2.25;;;1.25;;
19414;SDS011;9843;48.882;12.592;2023-08-12T09:03:44;1.02;;;0.90;;
19414;SDS011;9843;48.882;12.592;2023-08-12T09:06:12;2.38;;;1.15;;
19414;SDS011;9843;48.882;12.592;2023-08-12T09:08:40;2.05;;;1.13;;
19414;SDS011;9843;48.882;12.592;2023-08-12T09:11:10;4.53;;;1.25;;
19414;SDS011;9843;48.882;12.592;2023-08-12T09:13:39;2.25;;;1.77;;
19414;SDS011;9843;48.882;12.592;2023-08-12T09:16:06;1.90;;;1.13;;
19414;SDS011;9843;48.882;12.592;2023-08-12T09:18:33;2.47;;;1.58;;
19414;SDS011;9843;48.882;12.592;2023-08-12T09:21:01;1.55;;;1.15;;
19414;SDS011;9843;48.882;12.592;2023-08-12T09:23:28;3.28;;;1.23;;
19414;SDS011;9843;48.882;12.592;2023-08-12T09:25:56;2.90;;;1.40;;
19414;SDS011;9843;48.882;12.592;2023-08-12T09:28:24;2.60;;;1.27;;
19414;SDS011;9843;48.882;12.592;2023-08-12T09:30:51;3.88;;;1.52;;
19414;SDS011;9843;48.882;12.592;2023-08-12T09:33:23;8.25;;;2.03;;
19414;SDS011;9843;48.882;12.592;2023-08-12T09:35:50;3.05;;;1.50;;
19414;SDS011;9843;48.882;12.592;2023-08-12T09:38:17;5.35;;;1.92;;
19414;SDS011;9843;48.882;12.592;2023-08-12T09:40:46;2.55;;;1.40;;
19414;SDS011;9843;48.882;12.592;2023-08-12T09:43:15;2.08;;;1.23;;
19414;SDS011;9843;48.882;12.592;2023-08-12T09:45:43;4.10;;;1.13;;
19414;SDS011;9843;48.882;12.592;2023-08-12T09:48:11;1.42;;;1.10;;
19414;SDS011;9843;48.882;12.592;2023-08-12T09:50:38;5.55;;;1.08;;
19414;SDS011;9843;48.882;12.592;2023-08-12T09:53:06;2.75;;;1.33;;
19414;SDS011;9843;48.882;12.592;2023-08-12T09:55:33;4.53;;;1.58;;
19414;SDS011;9843;48.882;12.592;2023-08-12T09:58:02;10.65;;;1.67;;
19414;SDS011;9843;48.882;12.592;2023-08-12T10:00:32;2.33;;;1.38;;
19414;SDS011;9843;48.882;12.592;2023-08-12T10:02:59;2.13;;;1.35;;
19414;SDS011;9843;48.882;12.592;2023-08-12T10:05:28;3.70;;;1.48;;
19414;SDS011;9843;48.882;12.592;2023-08-12T10:07:55;4.55;;;1.67;;
19414;SDS011;9843;48.882;12.592;2023-08-12T10:10:23;4.78;;;1.30;;
19414;SDS011;9843;48.882;12.592;2023-08-12T10:12:51;2.28;;;1.00;;
19414;SDS011;9843;48.882;12.592;2023-08-12T10:15:18;1.83;;;1.02;;
19414;SDS011;9843;48.882;12.592;2023-08-12T10:17:47;1.45;;;0.77;;
19414;SDS011;9843;48.882;12.592;2023-08-12T10:20:20;6.00;;;1.33;;
19414;SDS011;9843;48.882;12.592;2023-08-12T10:22:47;3.20;;;1.25;;
19414;SDS011;9843;48.882;12.592;2023-08-12T10:25:15;2.63;;;1.20;;
19414;SDS011;9843;48.882;12.592;2023-08-12T10:27:44;1.25;;;0.93;;
19414;SDS011;9843;48.882;12.592;2023-08-12T10:30:12;2.20;;;1.02;;
19414;SDS011;9843;48.882;12.592;2023-08-12T10:32:40;3.88;;;1.15;;
19414;SDS011;9843;48.882;12.592;2023-08-12T10:35:08;0.88;;;0.68;;
19414;SDS011;9843;48.882;12.592;2023-08-12T10:37:37;1.83;;;0.90;;
19414;SDS011;9843;48.882;12.592;2023-08-12T10:40:05;4.25;;;1.50;;
19414;SDS011;9843;48.882;12.592;2023-08-12T10:42:42;1.95;;;1.17;;
19414;SDS011;9843;48.882;12.592;2023-08-12T10:45:12;2.88;;;0.88;;
19414;SDS011;9843;48.882;12.592;2023-08-12T10:47:40;3.33;;;1.20;;
19414;SDS011;9843;48.882;12.592;2023-08-12T10:50:17;1.00;;;0.70;;
19414;SDS011;9843;48.882;12.592;2023-08-12T10:52:44;3.33;;;1.40;;
19414;SDS011;9843;48.882;12.592;2023-08-12T10:55:18;1.95;;;1.00;;
19414;SDS011;9843;48.882;12.592;2023-08-12T10:57:47;1.58;;;0.95;;
19414;SDS011;9843;48.882;12.592;2023-08-12T11:00:15;2.90;;;1.10;;
19414;SDS011;9843;48.882;12.592;2023-08-12T11:02:45;2.78;;;1.00;;
19414;SDS011;9843;48.882;12.592;2023-08-12T11:05:12;1.25;;;0.80;;
19414;SDS011;9843;48.882;12.592;2023-08-12T11:07:41;3.55;;;1.00;;
19414;SDS011;9843;48.882;12.592;2023-08-12T11:10:13;1.85;;;0.80;;
19414;SDS011;9843;48.882;12.592;2023-08-12T11:12:41;1.83;;;1.33;;
19414;SDS011;9843;48.882;12.592;2023-08-12T11:15:08;2.13;;;1.02;;
19414;SDS011;9843;48.882;12.592;2023-08-12T11:17:37;1.63;;;1.05;;
19414;SDS011;9843;48.882;12.592;2023-08-12T11:20:05;2.45;;;1.63;;
19414;SDS011;9843;48.882;12.592;2023-08-12T11:22:32;3.95;;;1.58;;
19414;SDS011;9843;48.882;12.592;2023-08-12T11:25:04;3.15;;;1.23;;
19414;SDS011;9843;48.882;12.592;2023-08-12T11:27:37;3.13;;;1.25;;
19414;SDS011;9843;48.882;12.592;2023-08-12T11:30:04;4.93;;;1.88;;
19414;SDS011;9843;48.882;12.592;2023-08-12T11:32:32;1.95;;;1.45;;
19414;SDS011;9843;48.882;12.592;2023-08-12T11:34:59;1.13;;;1.00;;
19414;SDS011;9843;48.882;12.592;2023-08-12T11:37:26;1.23;;;0.93;;
19414;SDS011;9843;48.882;12.592;2023-08-12T11:39:53;4.05;;;1.25;;
19414;SDS011;9843;48.882;12.592;2023-08-12T11:42:22;2.13;;;1.60;;
19414;SDS011;9843;48.882;12.592;2023-08-12T11:44:49;4.45;;;1.27;;
19414;SDS011;9843;48.882;12.592;2023-08-12T11:47:16;1.33;;;0.85;;
19414;SDS011;9843;48.882;12.592;2023-08-12T11:49:43;2.00;;;1.42;;
19414;SDS011;9843;48.882;12.592;2023-08-12T11:52:10;2.50;;;1.25;;
19414;SDS011;9843;48.882;12.592;2023-08-12T11:54:38;2.92;;;1.45;;
19414;SDS011;9843;48.882;12.592;2023-08-12T11:57:05;2.05;;;0.82;;
19414;SDS011;9843;48.882;12.592;2023-08-12T11:59:34;3.50;;;1.40;;
19414;SDS011;9843;48.882;12.592;2023-08-12T12:02:02;1.33;;;1.23;;
19414;SDS011;9843;48.882;12.592;2023-08-12T12:04:30;3.30;;;1.38;;
19414;SDS011;9843;48.882;12.592;2023-08-12T12:06:57;4.65;;;1.90;;
19414;SDS011;9843;48.882;12.592;2023-08-12T12:09:25;2.05;;;1.52;;
19414;SDS011;9843;48.882;12.592;2023-08-12T12:11:52;5.25;;;1.00;;
19414;SDS011;9843;48.882;12.592;2023-08-12T12:14:20;4.15;;;1.42;;
19414;SDS011;9843;48.882;12.592;2023-08-12T12:16:49;2.78;;;1.55;;
19414;SDS011;9843;48.882;12.592;2023-08-12T12:19:17;1.05;;;0.90;;
19414;SDS011;9843;48.882;12.592;2023-08-12T12:21:45;4.90;;;0.95;;
19414;SDS011;9843;48.882;12.592;2023-08-12T12:24:12;1.92;;;1.08;;
19414;SDS011;9843;48.882;12.592;2023-08-12T12:26:39;1.52;;;1.10;;
19414;SDS011;9843;48.882;12.592;2023-08-12T12:29:07;3.40;;;0.93;;
19414;SDS011;9843;48.882;12.592;2023-08-12T12:31:36;1.90;;;1.30;;
19414;SDS011;9843;48.882;12.592;2023-08-12T12:34:06;1.65;;;1.15;;
19414;SDS011;9843;48.882;12.592;2023-08-12T12:36:35;2.75;;;1.17;;
19414;SDS011;9843;48.882;12.592;2023-08-12T12:39:02;2.53;;;1.55;;
19414;SDS011;9843;48.882;12.592;2023-08-12T12:41:29;2.90;;;1.25;;
19414;SDS011;9843;48.882;12.592;2023-08-12T12:43:56;1.38;;;1.17;;
19414;SDS011;9843;48.882;12.592;2023-08-12T12:46:23;1.45;;;0.93;;
19414;SDS011;9843;48.882;12.592;2023-08-12T12:48:50;4.13;;;0.80;;
19414;SDS011;9843;48.882;12.592;2023-08-12T12:51:19;3.35;;;1.10;;
19414;SDS011;9843;48.882;12.592;2023-08-12T12:53:46;1.30;;;0.73;;
19414;SDS011;9843;48.882;12.592;2023-08-12T12:56:13;1.00;;;0.82;;
19414;SDS011;9843;48.882;12.592;2023-08-12T12:58:40;1.90;;;1.75;;
19414;SDS011;9843;48.882;12.592;2023-08-12T13:01:07;0.80;;;0.73;;
19414;SDS011;9843;48.882;12.592;2023-08-12T13:03:34;2.10;;;0.90;;
19414;SDS011;9843;48.882;12.592;2023-08-12T13:06:01;1.83;;;0.77;;
19414;SDS011;9843;48.882;12.592;2023-08-12T13:08:30;2.65;;;1.27;;
19414;SDS011;9843;48.882;12.592;2023-08-12T13:10:57;3.55;;;0.90;;
19414;SDS011;9843;48.882;12.592;2023-08-12T13:13:24;1.63;;;1.00;;
19414;SDS011;9843;48.882;12.592;2023-08-12T13:15:51;2.72;;;1.05;;
19414;SDS011;9843;48.882;12.592;2023-08-12T13:18:18;1.10;;;0.70;;
19414;SDS011;9843;48.882;12.592;2023-08-12T13:20:45;2.67;;;1.15;;
19414;SDS011;9843;48.882;12.592;2023-08-12T13:23:13;3.15;;;0.95;;
19414;SDS011;9843;48.882;12.592;2023-08-12T13:25:42;4.72;;;0.75;;
19414;SDS011;9843;48.882;12.592;2023-08-12T13:28:09;0.95;;;0.70;;
19414;SDS011;9843;48.882;12.592;2023-08-12T13:30:36;1.10;;;0.65;;
19414;SDS011;9843;48.882;12.592;2023-08-12T13:33:03;0.80;;;0.65;;
19414;SDS011;9843;48.882;12.592;2023-08-12T13:35:31;3.33;;;0.75;;
19414;SDS011;9843;48.882;12.592;2023-08-12T13:37:58;2.13;;;0.80;;
19414;SDS011;9843;48.882;12.592;2023-08-12T13:40:25;2.05;;;1.05;;
19414;SDS011;9843;48.882;12.592;2023-08-12T13:42:53;1.77;;;1.02;;
19414;SDS011;9843;48.882;12.592;2023-08-12T13:45:21;1.83;;;0.70;;
19414;SDS011;9843;48.882;12.592;2023-08-12T13:47:49;2.00;;;0.80;;
19414;SDS011;9843;48.882;12.592;2023-08-12T13:50:16;2.25;;;0.82;;
19414;SDS011;9843;48.882;12.592;2023-08-12T13:52:43;0.75;;;0.60;;
19414;SDS011;9843;48.882;12.592;2023-08-12T13:55:11;4.88;;;1.27;;
19414;SDS011;9843;48.882;12.592;2023-08-12T13:57:38;1.42;;;0.80;;
19414;SDS011;9843;48.882;12.592;2023-08-12T14:00:07;1.13;;;0.75;;
19414;SDS011;9843;48.882;12.592;2023-08-12T14:02:35;6.03;;;0.90;;
19414;SDS011;9843;48.882;12.592;2023-08-12T14:05:02;1.75;;;0.90;;
19414;SDS011;9843;48.882;12.592;2023-08-12T14:07:30;3.22;;;0.90;;
19414;SDS011;9843;48.882;12.592;2023-08-12T14:09:57;1.17;;;0.80;;
19414;SDS011;9843;48.882;12.592;2023-08-12T14:12:24;3.97;;;0.77;;
19414;SDS011;9843;48.882;12.592;2023-08-12T14:14:51;2.33;;;0.80;;
19414;SDS011;9843;48.882;12.592;2023-08-12T14:17:20;2.35;;;1.20;;
19414;SDS011;9843;48.882;12.592;2023-08-12T14:19:48;3.53;;;1.05;;
19414;SDS011;9843;48.882;12.592;2023-08-12T14:22:15;8.80;;;0.98;;
19414;SDS011;9843;48.882;12.592;2023-08-12T14:24:42;1.85;;;0.80;;
19414;SDS011;9843;48.882;12.592;2023-08-12T14:27:10;4.88;;;0.95;;
19414;SDS011;9843;48.882;12.592;2023-08-12T14:29:37;1.20;;;0.88;;
19414;SDS011;9843;48.882;12.592;2023-08-12T14:32:04;14.23;;;1.60;;
19414;SDS011;9843;48.882;12.592;2023-08-12T14:34:33;0.88;;;0.73;;
19414;SDS011;9843;48.882;12.592;2023-08-12T14:37:01;4.32;;;1.13;;
19414;SDS011;9843;48.882;12.592;2023-08-12T14:39:28;2.05;;;0.90;;
19414;SDS011;9843;48.882;12.592;2023-08-12T14:41:55;1.02;;;0.60;;
19414;SDS011;9843;48.882;12.592;2023-08-12T14:44:22;3.72;;;1.33;;
19414;SDS011;9843;48.882;12.592;2023-08-12T14:46:50;3.65;;;1.75;;
19414;SDS011;9843;48.882;12.592;2023-08-12T14:49:18;2.67;;;1.10;;